sensor_id;sensor_type;location;lat;lon;timestamp;P1;durP1;ratioP1;P2;durP2;ratioP2
28728;SDS011;15894;50.452;30.446;2022-07-29T00:01:22;5.25;;;1.95;;
28728;SDS011;15894;50.452;30.446;2022-07-29T00:03:47;5.63;;;2.30;;
28728;SDS011;15894;50.452;30.446;2022-07-29T00:06:13;6.43;;;2.22;;
28728;SDS011;15894;50.452;30.446;2022-07-29T00:08:39;4.68;;;1.90;;
28728;SDS011;15894;50.452;30.446;2022-07-29T00:11:05;8.07;;;2.05;;
28728;SDS011;15894;50.452;30.446;2022-07-29T00:13:31;7.10;;;2.30;;
28728;SDS011;15894;50.452;30.446;2022-07-29T00:15:56;6.15;;;2.17;;
28728;SDS011;15894;50.452;30.446;2022-07-29T00:18:22;7.20;;;2.58;;
28728;SDS011;15894;50.452;30.446;2022-07-29T00:20:48;7.03;;;2.30;;
28728;SDS011;15894;50.452;30.446;2022-07-29T00:23:13;5.93;;;2.17;;
28728;SDS011;15894;50.452;30.446;2022-07-29T00:25:39;5.50;;;2.33;;
28728;SDS011;15894;50.452;30.446;2022-07-29T00:28:04;7.78;;;2.17;;
28728;SDS011;15894;50.452;30.446;2022-07-29T00:30:30;9.63;;;2.35;;
28728;SDS011;15894;50.452;30.446;2022-07-29T00:32:56;4.75;;;2.10;;
28728;SDS011;15894;50.452;30.446;2022-07-29T00:35:22;5.63;;;2.00;;
28728;SDS011;15894;50.452;30.446;2022-07-29T00:38:05;4.45;;;2.20;;
28728;SDS011;15894;50.452;30.446;2022-07-29T00:40:33;6.47;;;2.40;;
28728;SDS011;15894;50.452;30.446;2022-07-29T00:42:59;4.82;;;2.05;;
28728;SDS011;15894;50.452;30.446;2022-07-29T00:45:24;4.30;;;2.17;;
28728;SDS011;15894;50.452;30.446;2022-07-29T00:47:50;6.80;;;2.20;;
28728;SDS011;15894;50.452;30.446;2022-07-29T00:50:16;5.13;;;2.00;;
28728;SDS011;15894;50.452;30.446;2022-07-29T00:52:42;4.22;;;2.08;;
28728;SDS011;15894;50.452;30.446;2022-07-29T00:55:10;5.05;;;2.05;;
28728;SDS011;15894;50.452;30.446;2022-07-29T00:57:37;6.38;;;2.30;;
28728;SDS011;15894;50.452;30.446;2022-07-29T01:00:06;9.48;;;2.30;;
28728;SDS011;15894;50.452;30.446;2022-07-29T01:02:34;6.55;;;2.20;;
28728;SDS011;15894;50.452;30.446;2022-07-29T01:05:00;5.45;;;2.50;;
28728;SDS011;15894;50.452;30.446;2022-07-29T01:07:26;5.95;;;2.47;;
28728;SDS011;15894;50.452;30.446;2022-07-29T01:09:53;5.45;;;2.17;;
28728;SDS011;15894;50.452;30.446;2022-07-29T01:12:25;5.97;;;2.45;;
28728;SDS011;15894;50.452;30.446;2022-07-29T01:14:51;4.60;;;2.00;;
28728;SDS011;15894;50.452;30.446;2022-07-29T01:17:26;4.95;;;2.25;;
28728;SDS011;15894;50.452;30.446;2022-07-29T01:20:03;8.05;;;2.38;;
28728;SDS011;15894;50.452;30.446;2022-07-29T01:28:39;7.53;;;2.10;;
28728;SDS011;15894;50.452;30.446;2022-07-29T01:31:11;6.95;;;2.20;;
28728;SDS011;15894;50.452;30.446;2022-07-29T01:33:45;6.55;;;2.30;;
28728;SDS011;15894;50.452;30.446;2022-07-29T01:36:22;5.38;;;1.98;;
28728;SDS011;15894;50.452;30.446;2022-07-29T01:39:11;4.30;;;1.95;;
28728;SDS011;15894;50.452;30.446;2022-07-29T01:41:58;6.57;;;2.28;;
28728;SDS011;15894;50.452;30.446;2022-07-29T01:44:31;9.15;;;2.35;;
28728;SDS011;15894;50.452;30.446;2022-07-29T01:47:02;6.95;;;2.13;;
28728;SDS011;15894;50.452;30.446;2022-07-29T01:49:35;4.97;;;2.20;;
28728;SDS011;15894;50.452;30.446;2022-07-29T01:52:10;5.53;;;2.50;;
28728;SDS011;15894;50.452;30.446;2022-07-29T01:54:43;6.47;;;2.55;;
28728;SDS011;15894;50.452;30.446;2022-07-29T01:57:13;6.20;;;1.65;;
28728;SDS011;15894;50.452;30.446;2022-07-29T01:59:42;6.78;;;1.60;;
28728;SDS011;15894;50.452;30.446;2022-07-29T02:02:10;9.77;;;2.58;;
28728;SDS011;15894;50.452;30.446;2022-07-29T02:04:38;7.47;;;2.40;;
28728;SDS011;15894;50.452;30.446;2022-07-29T02:07:05;6.30;;;2.88;;
28728;SDS011;15894;50.452;30.446;2022-07-29T02:09:35;7.15;;;2.95;;
28728;SDS011;15894;50.452;30.446;2022-07-29T02:12:03;5.57;;;2.42;;
28728;SDS011;15894;50.452;30.446;2022-07-29T02:14:32;8.63;;;2.70;;
28728;SDS011;15894;50.452;30.446;2022-07-29T02:17:00;5.72;;;2.90;;
28728;SDS011;15894;50.452;30.446;2022-07-29T02:19:27;5.68;;;2.58;;
28728;SDS011;15894;50.452;30.446;2022-07-29T02:21:55;7.22;;;2.75;;
28728;SDS011;15894;50.452;30.446;2022-07-29T02:24:23;7.32;;;2.70;;
28728;SDS011;15894;50.452;30.446;2022-07-29T02:26:51;9.27;;;2.60;;
28728;SDS011;15894;50.452;30.446;2022-07-29T02:29:23;6.60;;;2.35;;
28728;SDS011;15894;50.452;30.446;2022-07-29T02:31:51;5.80;;;2.50;;
28728;SDS011;15894;50.452;30.446;2022-07-29T02:34:18;7.53;;;2.63;;
28728;SDS011;15894;50.452;30.446;2022-07-29T02:36:46;6.18;;;2.28;;
28728;SDS011;15894;50.452;30.446;2022-07-29T02:39:13;6.20;;;2.65;;
28728;SDS011;15894;50.452;30.446;2022-07-29T02:41:41;8.07;;;2.30;;
28728;SDS011;15894;50.452;30.446;2022-07-29T02:44:16;7.65;;;2.70;;
28728;SDS011;15894;50.452;30.446;2022-07-29T02:46:50;8.60;;;2.95;;
28728;SDS011;15894;50.452;30.446;2022-07-29T02:54:41;7.70;;;2.80;;
28728;SDS011;15894;50.452;30.446;2022-07-29T02:57:14;5.43;;;2.40;;
28728;SDS011;15894;50.452;30.446;2022-07-29T02:59:45;9.88;;;2.45;;
28728;SDS011;15894;50.452;30.446;2022-07-29T03:02:14;9.85;;;3.00;;
28728;SDS011;15894;50.452;30.446;2022-07-29T03:04:41;6.27;;;2.53;;
28728;SDS011;15894;50.452;30.446;2022-07-29T03:07:09;8.67;;;2.70;;
28728;SDS011;15894;50.452;30.446;2022-07-29T03:09:38;8.07;;;2.90;;
28728;SDS011;15894;50.452;30.446;2022-07-29T03:12:04;6.95;;;2.83;;
28728;SDS011;15894;50.452;30.446;2022-07-29T03:14:30;8.68;;;2.83;;
28728;SDS011;15894;50.452;30.446;2022-07-29T03:16:57;7.40;;;2.58;;
28728;SDS011;15894;50.452;30.446;2022-07-29T03:19:23;6.32;;;2.42;;
28728;SDS011;15894;50.452;30.446;2022-07-29T03:21:50;5.10;;;2.50;;
28728;SDS011;15894;50.452;30.446;2022-07-29T03:24:26;6.45;;;1.92;;
28728;SDS011;15894;50.452;30.446;2022-07-29T03:27:01;7.18;;;2.20;;
28728;SDS011;15894;50.452;30.446;2022-07-29T03:29:28;7.45;;;2.20;;
28728;SDS011;15894;50.452;30.446;2022-07-29T03:31:54;7.70;;;2.67;;
28728;SDS011;15894;50.452;30.446;2022-07-29T03:34:20;7.25;;;2.67;;
28728;SDS011;15894;50.452;30.446;2022-07-29T03:36:46;10.27;;;4.22;;
28728;SDS011;15894;50.452;30.446;2022-07-29T03:39:13;5.85;;;2.70;;
28728;SDS011;15894;50.452;30.446;2022-07-29T03:41:42;6.57;;;2.40;;
28728;SDS011;15894;50.452;30.446;2022-07-29T03:46:37;12.60;;;2.05;;
28728;SDS011;15894;50.452;30.446;2022-07-29T03:49:04;6.60;;;1.98;;
28728;SDS011;15894;50.452;30.446;2022-07-29T03:51:33;6.47;;;1.73;;
28728;SDS011;15894;50.452;30.446;2022-07-29T03:53:59;4.38;;;1.48;;
28728;SDS011;15894;50.452;30.446;2022-07-29T03:56:25;4.13;;;1.60;;
28728;SDS011;15894;50.452;30.446;2022-07-29T03:58:53;7.50;;;1.60;;
28728;SDS011;15894;50.452;30.446;2022-07-29T04:01:19;8.35;;;1.55;;
28728;SDS011;15894;50.452;30.446;2022-07-29T04:03:46;5.50;;;1.50;;
28728;SDS011;15894;50.452;30.446;2022-07-29T04:06:12;4.82;;;1.60;;
28728;SDS011;15894;50.452;30.446;2022-07-29T04:08:38;4.22;;;1.60;;
28728;SDS011;15894;50.452;30.446;2022-07-29T04:11:04;10.57;;;1.75;;
28728;SDS011;15894;50.452;30.446;2022-07-29T04:13:30;6.50;;;1.58;;
28728;SDS011;15894;50.452;30.446;2022-07-29T04:15:56;6.65;;;1.60;;
28728;SDS011;15894;50.452;30.446;2022-07-29T04:18:22;2.90;;;1.60;;
28728;SDS011;15894;50.452;30.446;2022-07-29T04:20:48;7.28;;;2.00;;
28728;SDS011;15894;50.452;30.446;2022-07-29T04:23:14;5.40;;;1.80;;
28728;SDS011;15894;50.452;30.446;2022-07-29T04:25:40;3.05;;;1.40;;
28728;SDS011;15894;50.452;30.446;2022-07-29T04:28:06;2.90;;;1.27;;
28728;SDS011;15894;50.452;30.446;2022-07-29T04:30:33;5.38;;;1.75;;
28728;SDS011;15894;50.452;30.446;2022-07-29T04:33:03;4.97;;;1.50;;
28728;SDS011;15894;50.452;30.446;2022-07-29T04:35:30;10.20;;;2.08;;
28728;SDS011;15894;50.452;30.446;2022-07-29T04:37:56;5.50;;;2.40;;
28728;SDS011;15894;50.452;30.446;2022-07-29T04:40:21;6.18;;;1.70;;
28728;SDS011;15894;50.452;30.446;2022-07-29T04:42:47;8.52;;;2.08;;
28728;SDS011;15894;50.452;30.446;2022-07-29T04:45:13;7.10;;;1.80;;
28728;SDS011;15894;50.452;30.446;2022-07-29T04:47:38;6.20;;;2.83;;
28728;SDS011;15894;50.452;30.446;2022-07-29T04:50:05;6.90;;;1.98;;
28728;SDS011;15894;50.452;30.446;2022-07-29T04:52:31;4.57;;;2.22;;
28728;SDS011;15894;50.452;30.446;2022-07-29T04:54:57;4.35;;;1.88;;
28728;SDS011;15894;50.452;30.446;2022-07-29T04:57:23;5.18;;;2.10;;
28728;SDS011;15894;50.452;30.446;2022-07-29T04:59:48;8.10;;;2.30;;
28728;SDS011;15894;50.452;30.446;2022-07-29T05:02:14;6.22;;;1.65;;
28728;SDS011;15894;50.452;30.446;2022-07-29T05:04:39;4.18;;;1.50;;
28728;SDS011;15894;50.452;30.446;2022-07-29T05:07:05;6.93;;;1.27;;
28728;SDS011;15894;50.452;30.446;2022-07-29T05:09:31;3.05;;;1.42;;
28728;SDS011;15894;50.452;30.446;2022-07-29T05:11:57;5.97;;;1.38;;
28728;SDS011;15894;50.452;30.446;2022-07-29T05:14:23;4.55;;;1.13;;
28728;SDS011;15894;50.452;30.446;2022-07-29T05:16:48;2.80;;;1.20;;
28728;SDS011;15894;50.452;30.446;2022-07-29T05:19:16;3.67;;;1.45;;
28728;SDS011;15894;50.452;30.446;2022-07-29T05:21:42;4.45;;;1.42;;
28728;SDS011;15894;50.452;30.446;2022-07-29T05:24:09;4.53;;;1.30;;
28728;SDS011;15894;50.452;30.446;2022-07-29T05:26:34;4.43;;;1.40;;
28728;SDS011;15894;50.452;30.446;2022-07-29T05:29:00;4.55;;;1.30;;
28728;SDS011;15894;50.452;30.446;2022-07-29T05:31:26;2.85;;;1.30;;
28728;SDS011;15894;50.452;30.446;2022-07-29T05:33:51;6.32;;;1.38;;
28728;SDS011;15894;50.452;30.446;2022-07-29T05:36:17;3.75;;;1.45;;
28728;SDS011;15894;50.452;30.446;2022-07-29T05:38:43;3.53;;;1.30;;
28728;SDS011;15894;50.452;30.446;2022-07-29T05:41:08;7.05;;;1.40;;
28728;SDS011;15894;50.452;30.446;2022-07-29T05:43:34;4.88;;;1.25;;
28728;SDS011;15894;50.452;30.446;2022-07-29T05:45:59;3.50;;;1.30;;
28728;SDS011;15894;50.452;30.446;2022-07-29T05:48:25;4.43;;;1.35;;
28728;SDS011;15894;50.452;30.446;2022-07-29T05:50:51;5.30;;;1.10;;
28728;SDS011;15894;50.452;30.446;2022-07-29T05:53:17;3.35;;;1.20;;
28728;SDS011;15894;50.452;30.446;2022-07-29T05:55:42;3.53;;;1.40;;
28728;SDS011;15894;50.452;30.446;2022-07-29T05:58:08;3.78;;;1.00;;
28728;SDS011;15894;50.452;30.446;2022-07-29T06:00:33;5.72;;;1.48;;
28728;SDS011;15894;50.452;30.446;2022-07-29T06:02:59;3.92;;;1.23;;
28728;SDS011;15894;50.452;30.446;2022-07-29T06:05:25;4.50;;;1.02;;
28728;SDS011;15894;50.452;30.446;2022-07-29T06:07:50;5.80;;;1.45;;
28728;SDS011;15894;50.452;30.446;2022-07-29T06:10:16;2.67;;;1.17;;
28728;SDS011;15894;50.452;30.446;2022-07-29T06:12:42;4.72;;;1.63;;
28728;SDS011;15894;50.452;30.446;2022-07-29T06:15:07;7.00;;;1.50;;
28728;SDS011;15894;50.452;30.446;2022-07-29T06:17:33;5.13;;;1.40;;
28728;SDS011;15894;50.452;30.446;2022-07-29T06:19:59;3.60;;;1.30;;
28728;SDS011;15894;50.452;30.446;2022-07-29T06:22:25;5.15;;;1.30;;
28728;SDS011;15894;50.452;30.446;2022-07-29T06:24:50;3.95;;;1.35;;
28728;SDS011;15894;50.452;30.446;2022-07-29T06:27:16;6.32;;;1.20;;
28728;SDS011;15894;50.452;30.446;2022-07-29T06:29:42;4.28;;;1.02;;
28728;SDS011;15894;50.452;30.446;2022-07-29T06:32:07;5.25;;;0.90;;
28728;SDS011;15894;50.452;30.446;2022-07-29T06:34:34;3.40;;;1.15;;
28728;SDS011;15894;50.452;30.446;2022-07-29T06:37:00;3.78;;;1.27;;
28728;SDS011;15894;50.452;30.446;2022-07-29T06:39:36;6.15;;;1.33;;
28728;SDS011;15894;50.452;30.446;2022-07-29T06:42:05;4.07;;;1.20;;
28728;SDS011;15894;50.452;30.446;2022-07-29T06:44:32;3.85;;;1.10;;
28728;SDS011;15894;50.452;30.446;2022-07-29T06:47:00;6.53;;;1.38;;
28728;SDS011;15894;50.452;30.446;2022-07-29T06:49:27;7.45;;;1.38;;
28728;SDS011;15894;50.452;30.446;2022-07-29T06:51:53;8.10;;;1.30;;
28728;SDS011;15894;50.452;30.446;2022-07-29T06:54:19;7.18;;;1.20;;
28728;SDS011;15894;50.452;30.446;2022-07-29T06:56:46;8.45;;;1.83;;
28728;SDS011;15894;50.452;30.446;2022-07-29T06:59:12;5.72;;;1.67;;
28728;SDS011;15894;50.452;30.446;2022-07-29T07:01:39;4.55;;;1.92;;
28728;SDS011;15894;50.452;30.446;2022-07-29T07:04:06;6.22;;;1.40;;
28728;SDS011;15894;50.452;30.446;2022-07-29T07:06:33;3.65;;;1.10;;
28728;SDS011;15894;50.452;30.446;2022-07-29T07:08:59;7.97;;;1.52;;
28728;SDS011;15894;50.452;30.446;2022-07-29T07:11:25;2.90;;;1.45;;
28728;SDS011;15894;50.452;30.446;2022-07-29T07:13:51;3.95;;;1.15;;
28728;SDS011;15894;50.452;30.446;2022-07-29T07:16:17;3.15;;;1.20;;
28728;SDS011;15894;50.452;30.446;2022-07-29T07:18:42;7.50;;;2.03;;
28728;SDS011;15894;50.452;30.446;2022-07-29T07:21:10;4.63;;;1.80;;
28728;SDS011;15894;50.452;30.446;2022-07-29T07:23:36;3.95;;;1.38;;
28728;SDS011;15894;50.452;30.446;2022-07-29T07:26:02;6.10;;;1.80;;
28728;SDS011;15894;50.452;30.446;2022-07-29T07:28:28;3.80;;;1.70;;
28728;SDS011;15894;50.452;30.446;2022-07-29T07:30:54;5.13;;;1.40;;
28728;SDS011;15894;50.452;30.446;2022-07-29T07:33:19;7.03;;;1.30;;
28728;SDS011;15894;50.452;30.446;2022-07-29T07:35:45;3.20;;;1.58;;
28728;SDS011;15894;50.452;30.446;2022-07-29T07:38:11;4.82;;;1.55;;
28728;SDS011;15894;50.452;30.446;2022-07-29T07:40:37;6.53;;;1.70;;
28728;SDS011;15894;50.452;30.446;2022-07-29T07:43:02;4.13;;;1.45;;
28728;SDS011;15894;50.452;30.446;2022-07-29T07:45:28;6.18;;;1.60;;
28728;SDS011;15894;50.452;30.446;2022-07-29T07:47:54;8.80;;;1.98;;
28728;SDS011;15894;50.452;30.446;2022-07-29T07:50:19;7.88;;;1.50;;
28728;SDS011;15894;50.452;30.446;2022-07-29T07:52:46;10.65;;;1.50;;
28728;SDS011;15894;50.452;30.446;2022-07-29T07:55:15;4.07;;;1.33;;
28728;SDS011;15894;50.452;30.446;2022-07-29T07:57:41;7.75;;;1.90;;
28728;SDS011;15894;50.452;30.446;2022-07-29T08:00:08;3.65;;;1.45;;
28728;SDS011;15894;50.452;30.446;2022-07-29T08:02:33;4.10;;;1.50;;
28728;SDS011;15894;50.452;30.446;2022-07-29T08:04:59;5.47;;;1.65;;
28728;SDS011;15894;50.452;30.446;2022-07-29T08:07:25;4.15;;;1.73;;
28728;SDS011;15894;50.452;30.446;2022-07-29T08:09:50;4.10;;;1.60;;
28728;SDS011;15894;50.452;30.446;2022-07-29T08:12:16;5.13;;;1.70;;
28728;SDS011;15894;50.452;30.446;2022-07-29T08:14:41;9.30;;;2.03;;
28728;SDS011;15894;50.452;30.446;2022-07-29T08:17:07;7.68;;;1.60;;
28728;SDS011;15894;50.452;30.446;2022-07-29T08:19:33;4.97;;;1.83;;
28728;SDS011;15894;50.452;30.446;2022-07-29T08:21:58;5.15;;;1.50;;
28728;SDS011;15894;50.452;30.446;2022-07-29T08:24:24;5.70;;;1.70;;
28728;SDS011;15894;50.452;30.446;2022-07-29T08:27:11;7.30;;;1.67;;
28728;SDS011;15894;50.452;30.446;2022-07-29T08:29:37;4.75;;;1.58;;
28728;SDS011;15894;50.452;30.446;2022-07-29T08:32:03;4.80;;;1.65;;
28728;SDS011;15894;50.452;30.446;2022-07-29T08:34:29;6.10;;;1.75;;
28728;SDS011;15894;50.452;30.446;2022-07-29T08:36:55;4.90;;;1.77;;
28728;SDS011;15894;50.452;30.446;2022-07-29T08:39:22;5.05;;;1.77;;
28728;SDS011;15894;50.452;30.446;2022-07-29T08:41:48;5.60;;;1.90;;
28728;SDS011;15894;50.452;30.446;2022-07-29T08:46:42;6.97;;;1.60;;
28728;SDS011;15894;50.452;30.446;2022-07-29T08:49:08;6.80;;;1.85;;
28728;SDS011;15894;50.452;30.446;2022-07-29T08:51:34;5.93;;;1.80;;
28728;SDS011;15894;50.452;30.446;2022-07-29T08:54:04;6.05;;;2.00;;
28728;SDS011;15894;50.452;30.446;2022-07-29T08:56:30;7.67;;;2.03;;
28728;SDS011;15894;50.452;30.446;2022-07-29T08:58:57;10.13;;;2.10;;
28728;SDS011;15894;50.452;30.446;2022-07-29T09:01:24;10.70;;;1.87;;
28728;SDS011;15894;50.452;30.446;2022-07-29T09:03:54;7.32;;;1.85;;
28728;SDS011;15894;50.452;30.446;2022-07-29T09:06:21;5.85;;;2.05;;
28728;SDS011;15894;50.452;30.446;2022-07-29T09:08:50;10.27;;;2.00;;
28728;SDS011;15894;50.452;30.446;2022-07-29T09:11:16;5.75;;;1.85;;
28728;SDS011;15894;50.452;30.446;2022-07-29T09:13:43;8.60;;;2.47;;
28728;SDS011;15894;50.452;30.446;2022-07-29T09:16:08;4.97;;;1.80;;
28728;SDS011;15894;50.452;30.446;2022-07-29T09:18:41;6.28;;;2.10;;
28728;SDS011;15894;50.452;30.446;2022-07-29T09:21:08;7.57;;;2.17;;
28728;SDS011;15894;50.452;30.446;2022-07-29T09:26:31;7.15;;;2.40;;
28728;SDS011;15894;50.452;30.446;2022-07-29T09:28:58;6.75;;;2.17;;
28728;SDS011;15894;50.452;30.446;2022-07-29T09:31:31;6.15;;;2.00;;
28728;SDS011;15894;50.452;30.446;2022-07-29T09:33:59;11.02;;;2.08;;
28728;SDS011;15894;50.452;30.446;2022-07-29T09:36:25;6.72;;;2.08;;
28728;SDS011;15894;50.452;30.446;2022-07-29T09:39:01;9.27;;;2.20;;
28728;SDS011;15894;50.452;30.446;2022-07-29T09:41:28;5.63;;;1.70;;
28728;SDS011;15894;50.452;30.446;2022-07-29T09:43:54;10.75;;;2.35;;
28728;SDS011;15894;50.452;30.446;2022-07-29T09:46:21;6.20;;;1.92;;
28728;SDS011;15894;50.452;30.446;2022-07-29T09:49:05;14.60;;;2.47;;
28728;SDS011;15894;50.452;30.446;2022-07-29T09:51:35;17.50;;;2.85;;
28728;SDS011;15894;50.452;30.446;2022-07-29T09:54:02;11.05;;;2.08;;
28728;SDS011;15894;50.452;30.446;2022-07-29T09:56:45;36.45;;;4.43;;
28728;SDS011;15894;50.452;30.446;2022-07-29T09:59:12;9.98;;;2.78;;
28728;SDS011;15894;50.452;30.446;2022-07-29T10:01:38;16.58;;;3.05;;
28728;SDS011;15894;50.452;30.446;2022-07-29T10:04:04;10.20;;;2.60;;
28728;SDS011;15894;50.452;30.446;2022-07-29T10:06:30;7.75;;;2.20;;
28728;SDS011;15894;50.452;30.446;2022-07-29T10:09:06;11.32;;;2.45;;
28728;SDS011;15894;50.452;30.446;2022-07-29T10:11:36;9.43;;;2.05;;
28728;SDS011;15894;50.452;30.446;2022-07-29T10:14:02;10.35;;;2.33;;
28728;SDS011;15894;50.452;30.446;2022-07-29T10:16:29;10.57;;;2.20;;
28728;SDS011;15894;50.452;30.446;2022-07-29T10:18:58;7.85;;;2.35;;
28728;SDS011;15894;50.452;30.446;2022-07-29T10:21:27;10.48;;;2.70;;
28728;SDS011;15894;50.452;30.446;2022-07-29T10:23:54;11.18;;;1.88;;
28728;SDS011;15894;50.452;30.446;2022-07-29T10:28:47;8.88;;;2.03;;
28728;SDS011;15894;50.452;30.446;2022-07-29T10:31:19;10.00;;;2.20;;
28728;SDS011;15894;50.452;30.446;2022-07-29T10:34:08;8.32;;;1.95;;
28728;SDS011;15894;50.452;30.446;2022-07-29T10:42:21;8.50;;;2.28;;
28728;SDS011;15894;50.452;30.446;2022-07-29T10:44:49;5.88;;;2.05;;
28728;SDS011;15894;50.452;30.446;2022-07-29T10:47:23;10.60;;;2.80;;
28728;SDS011;15894;50.452;30.446;2022-07-29T10:49:59;8.50;;;2.25;;
28728;SDS011;15894;50.452;30.446;2022-07-29T10:53:11;4.93;;;1.88;;
28728;SDS011;15894;50.452;30.446;2022-07-29T10:58:11;7.35;;;2.10;;
28728;SDS011;15894;50.452;30.446;2022-07-29T11:00:37;10.65;;;2.63;;
28728;SDS011;15894;50.452;30.446;2022-07-29T11:03:03;5.05;;;2.00;;
28728;SDS011;15894;50.452;30.446;2022-07-29T11:05:28;7.95;;;2.30;;
28728;SDS011;15894;50.452;30.446;2022-07-29T11:10:46;8.23;;;1.98;;
28728;SDS011;15894;50.452;30.446;2022-07-29T11:16:11;4.97;;;1.60;;
28728;SDS011;15894;50.452;30.446;2022-07-29T11:19:05;7.38;;;2.30;;
28728;SDS011;15894;50.452;30.446;2022-07-29T11:21:41;5.78;;;1.75;;
28728;SDS011;15894;50.452;30.446;2022-07-29T11:24:11;6.72;;;1.92;;
28728;SDS011;15894;50.452;30.446;2022-07-29T11:26:38;8.60;;;2.05;;
28728;SDS011;15894;50.452;30.446;2022-07-29T11:29:06;14.95;;;2.40;;
28728;SDS011;15894;50.452;30.446;2022-07-29T11:31:47;4.85;;;1.92;;
28728;SDS011;15894;50.452;30.446;2022-07-29T11:39:37;4.22;;;1.60;;
28728;SDS011;15894;50.452;30.446;2022-07-29T11:45:44;5.55;;;1.67;;
28728;SDS011;15894;50.452;30.446;2022-07-29T11:47:37;3.55;;;1.52;;
28728;SDS011;15894;50.452;30.446;2022-07-29T11:50:05;7.70;;;2.00;;
28728;SDS011;15894;50.452;30.446;2022-07-29T11:52:45;3.80;;;1.63;;
28728;SDS011;15894;50.452;30.446;2022-07-29T11:55:13;7.00;;;2.00;;
28728;SDS011;15894;50.452;30.446;2022-07-29T11:57:47;6.93;;;1.67;;
28728;SDS011;15894;50.452;30.446;2022-07-29T12:02:58;5.72;;;1.88;;
28728;SDS011;15894;50.452;30.446;2022-07-29T12:05:36;7.05;;;1.50;;
28728;SDS011;15894;50.452;30.446;2022-07-29T12:08:04;5.32;;;1.75;;
28728;SDS011;15894;50.452;30.446;2022-07-29T12:10:41;2.67;;;1.50;;
28728;SDS011;15894;50.452;30.446;2022-07-29T12:13:08;4.43;;;1.85;;
28728;SDS011;15894;50.452;30.446;2022-07-29T12:15:35;4.90;;;1.80;;
28728;SDS011;15894;50.452;30.446;2022-07-29T12:18:14;3.97;;;1.70;;
28728;SDS011;15894;50.452;30.446;2022-07-29T12:20:41;4.90;;;1.63;;
28728;SDS011;15894;50.452;30.446;2022-07-29T12:23:08;4.72;;;1.80;;
28728;SDS011;15894;50.452;30.446;2022-07-29T12:25:36;5.80;;;1.70;;
28728;SDS011;15894;50.452;30.446;2022-07-29T12:28:04;9.00;;;2.07;;
28728;SDS011;15894;50.452;30.446;2022-07-29T12:30:35;5.88;;;1.88;;
28728;SDS011;15894;50.452;30.446;2022-07-29T12:33:13;4.15;;;1.60;;
28728;SDS011;15894;50.452;30.446;2022-07-29T12:35:44;5.43;;;1.60;;
28728;SDS011;15894;50.452;30.446;2022-07-29T12:38:12;3.65;;;1.55;;
28728;SDS011;15894;50.452;30.446;2022-07-29T12:40:38;9.18;;;1.63;;
28728;SDS011;15894;50.452;30.446;2022-07-29T12:45:35;5.00;;;1.38;;
28728;SDS011;15894;50.452;30.446;2022-07-29T12:48:02;6.60;;;1.50;;
28728;SDS011;15894;50.452;30.446;2022-07-29T12:50:28;4.88;;;1.60;;
28728;SDS011;15894;50.452;30.446;2022-07-29T12:52:53;3.97;;;1.67;;
28728;SDS011;15894;50.452;30.446;2022-07-29T12:55:38;2.70;;;1.60;;
28728;SDS011;15894;50.452;30.446;2022-07-29T12:58:04;16.45;;;2.75;;
28728;SDS011;15894;50.452;30.446;2022-07-29T13:00:30;8.32;;;1.88;;
28728;SDS011;15894;50.452;30.446;2022-07-29T13:02:56;4.30;;;1.25;;
28728;SDS011;15894;50.452;30.446;2022-07-29T13:05:22;12.40;;;1.80;;
28728;SDS011;15894;50.452;30.446;2022-07-29T13:07:49;4.82;;;1.70;;
28728;SDS011;15894;50.452;30.446;2022-07-29T13:10:16;5.38;;;1.90;;
28728;SDS011;15894;50.452;30.446;2022-07-29T13:15:32;6.53;;;1.88;;
28728;SDS011;15894;50.452;30.446;2022-07-29T13:17:59;6.35;;;1.70;;
28728;SDS011;15894;50.452;30.446;2022-07-29T13:20:25;9.18;;;1.85;;
28728;SDS011;15894;50.452;30.446;2022-07-29T13:22:55;10.68;;;2.30;;
28728;SDS011;15894;50.452;30.446;2022-07-29T13:25:26;8.05;;;2.20;;
28728;SDS011;15894;50.452;30.446;2022-07-29T13:27:56;7.10;;;2.03;;
28728;SDS011;15894;50.452;30.446;2022-07-29T13:30:23;5.63;;;1.80;;
28728;SDS011;15894;50.452;30.446;2022-07-29T13:32:50;4.68;;;1.85;;
28728;SDS011;15894;50.452;30.446;2022-07-29T13:35:16;8.93;;;2.28;;
28728;SDS011;15894;50.452;30.446;2022-07-29T13:37:43;6.35;;;1.90;;
28728;SDS011;15894;50.452;30.446;2022-07-29T13:40:10;5.80;;;1.92;;
28728;SDS011;15894;50.452;30.446;2022-07-29T13:42:36;7.38;;;1.98;;
28728;SDS011;15894;50.452;30.446;2022-07-29T13:45:02;15.35;;;2.13;;
28728;SDS011;15894;50.452;30.446;2022-07-29T13:47:29;4.50;;;1.93;;
28728;SDS011;15894;50.452;30.446;2022-07-29T13:49:55;9.13;;;1.85;;
28728;SDS011;15894;50.452;30.446;2022-07-29T13:52:21;5.55;;;2.28;;
28728;SDS011;15894;50.452;30.446;2022-07-29T13:54:46;7.50;;;2.05;;
28728;SDS011;15894;50.452;30.446;2022-07-29T13:57:12;6.07;;;2.10;;
28728;SDS011;15894;50.452;30.446;2022-07-29T13:59:39;4.10;;;1.88;;
28728;SDS011;15894;50.452;30.446;2022-07-29T14:02:05;8.23;;;1.80;;
28728;SDS011;15894;50.452;30.446;2022-07-29T14:04:31;5.57;;;2.33;;
28728;SDS011;15894;50.452;30.446;2022-07-29T14:06:58;5.13;;;1.73;;
28728;SDS011;15894;50.452;30.446;2022-07-29T14:09:23;6.10;;;2.25;;
28728;SDS011;15894;50.452;30.446;2022-07-29T14:11:49;4.18;;;2.05;;
28728;SDS011;15894;50.452;30.446;2022-07-29T14:14:16;7.68;;;2.30;;
28728;SDS011;15894;50.452;30.446;2022-07-29T14:16:42;7.13;;;1.88;;
28728;SDS011;15894;50.452;30.446;2022-07-29T14:19:08;8.15;;;1.90;;
28728;SDS011;15894;50.452;30.446;2022-07-29T14:21:33;6.60;;;1.90;;
28728;SDS011;15894;50.452;30.446;2022-07-29T14:23:59;3.53;;;1.80;;
28728;SDS011;15894;50.452;30.446;2022-07-29T14:26:25;8.38;;;1.90;;
28728;SDS011;15894;50.452;30.446;2022-07-29T14:28:50;6.00;;;2.20;;
28728;SDS011;15894;50.452;30.446;2022-07-29T14:31:16;9.75;;;2.10;;
28728;SDS011;15894;50.452;30.446;2022-07-29T14:33:42;7.03;;;2.17;;
28728;SDS011;15894;50.452;30.446;2022-07-29T14:36:08;5.28;;;2.20;;
28728;SDS011;15894;50.452;30.446;2022-07-29T14:38:34;7.65;;;2.00;;
28728;SDS011;15894;50.452;30.446;2022-07-29T14:41:00;5.60;;;1.95;;
28728;SDS011;15894;50.452;30.446;2022-07-29T14:43:26;4.18;;;1.80;;
28728;SDS011;15894;50.452;30.446;2022-07-29T14:45:52;6.53;;;1.95;;
28728;SDS011;15894;50.452;30.446;2022-07-29T14:48:17;4.43;;;2.08;;
28728;SDS011;15894;50.452;30.446;2022-07-29T14:50:43;5.10;;;1.88;;
28728;SDS011;15894;50.452;30.446;2022-07-29T14:53:09;5.05;;;1.95;;
28728;SDS011;15894;50.452;30.446;2022-07-29T14:58:02;7.38;;;2.10;;
28728;SDS011;15894;50.452;30.446;2022-07-29T15:00:28;5.30;;;1.88;;
28728;SDS011;15894;50.452;30.446;2022-07-29T15:02:57;8.07;;;2.30;;
28728;SDS011;15894;50.452;30.446;2022-07-29T15:05:23;7.75;;;2.08;;
28728;SDS011;15894;50.452;30.446;2022-07-29T15:07:48;5.82;;;2.00;;
28728;SDS011;15894;50.452;30.446;2022-07-29T15:10:14;6.63;;;2.20;;
28728;SDS011;15894;50.452;30.446;2022-07-29T15:12:40;5.53;;;1.77;;
28728;SDS011;15894;50.452;30.446;2022-07-29T15:15:05;5.38;;;1.90;;
28728;SDS011;15894;50.452;30.446;2022-07-29T15:17:32;3.35;;;1.90;;
28728;SDS011;15894;50.452;30.446;2022-07-29T15:19:58;5.97;;;2.22;;
28728;SDS011;15894;50.452;30.446;2022-07-29T15:22:24;5.43;;;1.77;;
28728;SDS011;15894;50.452;30.446;2022-07-29T15:24:49;5.78;;;2.05;;
28728;SDS011;15894;50.452;30.446;2022-07-29T15:27:15;13.63;;;5.57;;
28728;SDS011;15894;50.452;30.446;2022-07-29T15:29:41;5.88;;;2.75;;
28728;SDS011;15894;50.452;30.446;2022-07-29T15:32:07;6.00;;;2.30;;